sensor_id;sensor_type;location;lat;lon;timestamp;P1;durP1;ratioP1;P2;durP2;ratioP2
19675;SDS011;39539;52.202;9.876;2024-02-14T00:02:07;3.03;;;1.65;;
19675;SDS011;39539;52.202;9.876;2024-02-14T00:04:32;1.63;;;1.52;;
19675;SDS011;39539;52.202;9.876;2024-02-14T00:06:58;2.38;;;1.90;;
19675;SDS011;39539;52.202;9.876;2024-02-14T00:09:23;6.78;;;1.88;;
19675;SDS011;39539;52.202;9.876;2024-02-14T00:11:48;2.53;;;1.70;;
19675;SDS011;39539;52.202;9.876;2024-02-14T00:14:13;3.53;;;1.70;;
19675;SDS011;39539;52.202;9.876;2024-02-14T00:16:39;2.28;;;1.98;;
19675;SDS011;39539;52.202;9.876;2024-02-14T00:19:04;2.85;;;1.70;;
19675;SDS011;39539;52.202;9.876;2024-02-14T00:21:30;1.90;;;1.70;;
19675;SDS011;39539;52.202;9.876;2024-02-14T00:23:56;2.60;;;2.30;;
19675;SDS011;39539;52.202;9.876;2024-02-14T00:26:23;2.38;;;2.13;;
19675;SDS011;39539;52.202;9.876;2024-02-14T00:28:49;3.55;;;2.05;;
19675;SDS011;39539;52.202;9.876;2024-02-14T00:31:14;2.03;;;1.92;;
19675;SDS011;39539;52.202;9.876;2024-02-14T00:33:39;3.95;;;1.98;;
19675;SDS011;39539;52.202;9.876;2024-02-14T00:36:06;3.47;;;1.95;;
19675;SDS011;39539;52.202;9.876;2024-02-14T00:38:31;2.00;;;1.77;;
19675;SDS011;39539;52.202;9.876;2024-02-14T00:40:57;3.38;;;1.98;;
19675;SDS011;39539;52.202;9.876;2024-02-14T00:43:22;2.35;;;1.80;;
19675;SDS011;39539;52.202;9.876;2024-02-14T00:45:48;3.60;;;2.30;;
19675;SDS011;39539;52.202;9.876;2024-02-14T00:48:13;1.83;;;1.60;;
19675;SDS011;39539;52.202;9.876;2024-02-14T00:50:38;3.17;;;1.90;;
19675;SDS011;39539;52.202;9.876;2024-02-14T00:53:04;3.47;;;1.60;;
19675;SDS011;39539;52.202;9.876;2024-02-14T00:55:29;3.10;;;2.15;;
19675;SDS011;39539;52.202;9.876;2024-02-14T00:57:54;2.65;;;2.10;;
19675;SDS011;39539;52.202;9.876;2024-02-14T01:00:20;3.08;;;1.80;;
19675;SDS011;39539;52.202;9.876;2024-02-14T01:02:45;3.83;;;1.87;;
19675;SDS011;39539;52.202;9.876;2024-02-14T01:05:10;2.53;;;1.80;;
19675;SDS011;39539;52.202;9.876;2024-02-14T01:07:36;3.67;;;1.75;;
19675;SDS011;39539;52.202;9.876;2024-02-14T01:10:01;2.53;;;1.75;;
19675;SDS011;39539;52.202;9.876;2024-02-14T01:12:27;2.47;;;1.70;;
19675;SDS011;39539;52.202;9.876;2024-02-14T01:14:54;4.45;;;2.05;;
19675;SDS011;39539;52.202;9.876;2024-02-14T01:17:20;2.63;;;1.88;;
19675;SDS011;39539;52.202;9.876;2024-02-14T01:19:45;2.50;;;1.73;;
19675;SDS011;39539;52.202;9.876;2024-02-14T01:22:11;3.15;;;1.70;;
19675;SDS011;39539;52.202;9.876;2024-02-14T01:24:36;4.38;;;2.28;;
19675;SDS011;39539;52.202;9.876;2024-02-14T01:27:01;1.83;;;1.70;;
19675;SDS011;39539;52.202;9.876;2024-02-14T01:29:28;2.88;;;1.67;;
19675;SDS011;39539;52.202;9.876;2024-02-14T01:31:54;3.65;;;2.25;;
19675;SDS011;39539;52.202;9.876;2024-02-14T01:34:19;3.00;;;2.05;;
19675;SDS011;39539;52.202;9.876;2024-02-14T01:36:45;4.93;;;2.28;;
19675;SDS011;39539;52.202;9.876;2024-02-14T01:39:13;3.53;;;1.80;;
19675;SDS011;39539;52.202;9.876;2024-02-14T01:41:38;2.35;;;1.77;;
19675;SDS011;39539;52.202;9.876;2024-02-14T01:44:04;2.58;;;1.80;;
19675;SDS011;39539;52.202;9.876;2024-02-14T01:46:29;2.80;;;1.88;;
19675;SDS011;39539;52.202;9.876;2024-02-14T01:48:55;2.63;;;1.95;;
19675;SDS011;39539;52.202;9.876;2024-02-14T01:51:21;3.80;;;2.05;;
19675;SDS011;39539;52.202;9.876;2024-02-14T01:53:51;2.42;;;2.22;;
19675;SDS011;39539;52.202;9.876;2024-02-14T01:56:19;4.32;;;2.30;;
19675;SDS011;39539;52.202;9.876;2024-02-14T01:58:44;2.78;;;2.00;;
19675;SDS011;39539;52.202;9.876;2024-02-14T02:01:11;3.25;;;2.35;;
19675;SDS011;39539;52.202;9.876;2024-02-14T02:03:37;3.10;;;2.75;;
19675;SDS011;39539;52.202;9.876;2024-02-14T02:06:02;2.35;;;2.15;;
19675;SDS011;39539;52.202;9.876;2024-02-14T02:08:31;3.63;;;2.45;;
19675;SDS011;39539;52.202;9.876;2024-02-14T02:10:57;2.85;;;2.30;;
19675;SDS011;39539;52.202;9.876;2024-02-14T02:13:23;4.38;;;2.33;;
19675;SDS011;39539;52.202;9.876;2024-02-14T02:15:48;2.30;;;2.05;;
19675;SDS011;39539;52.202;9.876;2024-02-14T02:18:13;3.38;;;2.92;;
19675;SDS011;39539;52.202;9.876;2024-02-14T02:20:40;3.22;;;2.92;;
19675;SDS011;39539;52.202;9.876;2024-02-14T02:23:07;3.40;;;3.00;;
19675;SDS011;39539;52.202;9.876;2024-02-14T02:25:34;4.32;;;2.83;;
19675;SDS011;39539;52.202;9.876;2024-02-14T02:27:59;6.07;;;2.58;;
19675;SDS011;39539;52.202;9.876;2024-02-14T02:30:25;2.78;;;2.58;;
19675;SDS011;39539;52.202;9.876;2024-02-14T02:32:50;5.25;;;3.10;;
19675;SDS011;39539;52.202;9.876;2024-02-14T02:35:16;5.72;;;2.83;;
19675;SDS011;39539;52.202;9.876;2024-02-14T02:37:46;2.97;;;2.67;;
19675;SDS011;39539;52.202;9.876;2024-02-14T02:40:13;3.35;;;2.88;;
19675;SDS011;39539;52.202;9.876;2024-02-14T02:42:39;3.45;;;2.33;;
19675;SDS011;39539;52.202;9.876;2024-02-14T02:45:05;4.43;;;3.22;;
19675;SDS011;39539;52.202;9.876;2024-02-14T02:47:31;5.10;;;2.85;;
19675;SDS011;39539;52.202;9.876;2024-02-14T02:49:57;3.83;;;2.90;;
19675;SDS011;39539;52.202;9.876;2024-02-14T02:52:26;3.80;;;2.85;;
19675;SDS011;39539;52.202;9.876;2024-02-14T02:54:52;4.50;;;2.50;;
19675;SDS011;39539;52.202;9.876;2024-02-14T02:57:18;3.00;;;2.47;;
19675;SDS011;39539;52.202;9.876;2024-02-14T02:59:44;4.18;;;2.50;;
19675;SDS011;39539;52.202;9.876;2024-02-14T03:02:11;2.70;;;2.38;;
19675;SDS011;39539;52.202;9.876;2024-02-14T03:04:37;3.55;;;2.47;;
19675;SDS011;39539;52.202;9.876;2024-02-14T03:07:03;5.43;;;2.40;;
19675;SDS011;39539;52.202;9.876;2024-02-14T03:09:31;2.83;;;2.30;;
19675;SDS011;39539;52.202;9.876;2024-02-14T03:11:57;4.53;;;2.83;;
19675;SDS011;39539;52.202;9.876;2024-02-14T03:14:22;3.93;;;3.40;;
19675;SDS011;39539;52.202;9.876;2024-02-14T03:16:48;2.90;;;2.60;;
19675;SDS011;39539;52.202;9.876;2024-02-14T03:19:13;3.30;;;2.42;;
19675;SDS011;39539;52.202;9.876;2024-02-14T03:21:39;3.13;;;2.40;;
19675;SDS011;39539;52.202;9.876;2024-02-14T03:24:04;3.05;;;2.50;;
19675;SDS011;39539;52.202;9.876;2024-02-14T03:26:33;4.55;;;2.70;;
19675;SDS011;39539;52.202;9.876;2024-02-14T03:28:59;4.97;;;3.15;;
19675;SDS011;39539;52.202;9.876;2024-02-14T03:31:25;2.92;;;2.47;;
19675;SDS011;39539;52.202;9.876;2024-02-14T03:33:51;2.80;;;2.45;;
19675;SDS011;39539;52.202;9.876;2024-02-14T03:36:16;3.72;;;2.63;;
19675;SDS011;39539;52.202;9.876;2024-02-14T03:38:41;5.45;;;2.83;;
19675;SDS011;39539;52.202;9.876;2024-02-14T03:41:07;3.20;;;2.50;;
19675;SDS011;39539;52.202;9.876;2024-02-14T03:43:32;4.15;;;2.72;;
19675;SDS011;39539;52.202;9.876;2024-02-14T03:45:58;3.42;;;2.42;;
19675;SDS011;39539;52.202;9.876;2024-02-14T03:48:23;3.00;;;2.70;;
19675;SDS011;39539;52.202;9.876;2024-02-14T03:50:48;4.35;;;2.95;;
19675;SDS011;39539;52.202;9.876;2024-02-14T03:53:14;3.20;;;2.90;;
19675;SDS011;39539;52.202;9.876;2024-02-14T03:55:40;2.80;;;2.53;;
19675;SDS011;39539;52.202;9.876;2024-02-14T03:58:05;2.80;;;2.60;;
19675;SDS011;39539;52.202;9.876;2024-02-14T04:00:31;3.08;;;2.65;;
19675;SDS011;39539;52.202;9.876;2024-02-14T04:02:57;4.35;;;2.95;;
19675;SDS011;39539;52.202;9.876;2024-02-14T04:05:24;2.90;;;2.63;;
19675;SDS011;39539;52.202;9.876;2024-02-14T04:07:52;3.30;;;2.75;;
19675;SDS011;39539;52.202;9.876;2024-02-14T04:10:19;2.95;;;2.65;;
19675;SDS011;39539;52.202;9.876;2024-02-14T04:12:44;2.95;;;2.60;;
19675;SDS011;39539;52.202;9.876;2024-02-14T04:15:10;4.50;;;2.35;;
19675;SDS011;39539;52.202;9.876;2024-02-14T04:17:35;2.90;;;2.70;;
19675;SDS011;39539;52.202;9.876;2024-02-14T04:20:00;2.45;;;2.25;;
19675;SDS011;39539;52.202;9.876;2024-02-14T04:22:26;2.70;;;2.47;;
19675;SDS011;39539;52.202;9.876;2024-02-14T04:24:51;3.50;;;2.58;;
19675;SDS011;39539;52.202;9.876;2024-02-14T04:27:16;2.63;;;2.35;;
19675;SDS011;39539;52.202;9.876;2024-02-14T04:29:45;3.58;;;2.30;;
19675;SDS011;39539;52.202;9.876;2024-02-14T04:32:11;2.65;;;2.42;;
19675;SDS011;39539;52.202;9.876;2024-02-14T04:34:37;2.75;;;2.03;;
19675;SDS011;39539;52.202;9.876;2024-02-14T04:37:04;4.18;;;2.50;;
19675;SDS011;39539;52.202;9.876;2024-02-14T04:39:35;3.22;;;2.47;;
19675;SDS011;39539;52.202;9.876;2024-02-14T04:42:01;4.10;;;2.60;;
19675;SDS011;39539;52.202;9.876;2024-02-14T04:44:27;3.28;;;2.33;;
19675;SDS011;39539;52.202;9.876;2024-02-14T04:46:56;2.78;;;2.50;;
19675;SDS011;39539;52.202;9.876;2024-02-14T04:49:23;3.58;;;2.35;;
19675;SDS011;39539;52.202;9.876;2024-02-14T04:51:49;3.38;;;2.63;;
19675;SDS011;39539;52.202;9.876;2024-02-14T04:54:15;3.20;;;2.70;;
19675;SDS011;39539;52.202;9.876;2024-02-14T04:56:41;8.25;;;2.70;;
19675;SDS011;39539;52.202;9.876;2024-02-14T04:59:07;3.33;;;2.42;;
19675;SDS011;39539;52.202;9.876;2024-02-14T05:01:33;2.88;;;2.65;;
19675;SDS011;39539;52.202;9.876;2024-02-14T05:03:59;5.43;;;2.70;;
19675;SDS011;39539;52.202;9.876;2024-02-14T05:06:24;4.38;;;3.13;;
19675;SDS011;39539;52.202;9.876;2024-02-14T05:08:50;4.03;;;2.60;;
19675;SDS011;39539;52.202;9.876;2024-02-14T05:11:16;4.70;;;2.95;;
19675;SDS011;39539;52.202;9.876;2024-02-14T05:13:42;3.42;;;3.10;;
19675;SDS011;39539;52.202;9.876;2024-02-14T05:16:08;4.03;;;3.00;;
19675;SDS011;39539;52.202;9.876;2024-02-14T05:18:35;4.28;;;3.03;;
19675;SDS011;39539;52.202;9.876;2024-02-14T05:21:04;3.90;;;2.92;;
19675;SDS011;39539;52.202;9.876;2024-02-14T05:23:31;4.68;;;2.83;;
19675;SDS011;39539;52.202;9.876;2024-02-14T05:25:56;3.22;;;2.90;;
19675;SDS011;39539;52.202;9.876;2024-02-14T05:28:21;3.95;;;3.08;;
19675;SDS011;39539;52.202;9.876;2024-02-14T05:30:47;2.90;;;2.65;;
19675;SDS011;39539;52.202;9.876;2024-02-14T05:33:12;2.65;;;2.45;;
19675;SDS011;39539;52.202;9.876;2024-02-14T05:35:37;3.60;;;2.78;;
19675;SDS011;39539;52.202;9.876;2024-02-14T05:38:03;4.95;;;2.83;;
19675;SDS011;39539;52.202;9.876;2024-02-14T05:40:32;3.13;;;2.53;;
19675;SDS011;39539;52.202;9.876;2024-02-14T05:42:58;2.72;;;2.40;;
19675;SDS011;39539;52.202;9.876;2024-02-14T05:45:23;2.45;;;2.25;;
19675;SDS011;39539;52.202;9.876;2024-02-14T05:47:49;2.60;;;2.15;;
19675;SDS011;39539;52.202;9.876;2024-02-14T05:50:14;4.90;;;2.25;;
19675;SDS011;39539;52.202;9.876;2024-02-14T05:52:39;3.10;;;2.60;;
19675;SDS011;39539;52.202;9.876;2024-02-14T05:55:05;2.45;;;2.25;;
19675;SDS011;39539;52.202;9.876;2024-02-14T05:57:30;3.25;;;2.40;;
19675;SDS011;39539;52.202;9.876;2024-02-14T05:59:56;2.55;;;2.25;;
19675;SDS011;39539;52.202;9.876;2024-02-14T06:02:21;3.63;;;2.88;;
19675;SDS011;39539;52.202;9.876;2024-02-14T06:04:47;3.83;;;2.38;;
19675;SDS011;39539;52.202;9.876;2024-02-14T06:07:12;4.55;;;2.22;;
19675;SDS011;39539;52.202;9.876;2024-02-14T06:09:37;3.70;;;2.30;;
19675;SDS011;39539;52.202;9.876;2024-02-14T06:12:03;2.83;;;2.00;;
19675;SDS011;39539;52.202;9.876;2024-02-14T06:14:29;3.45;;;2.28;;
19675;SDS011;39539;52.202;9.876;2024-02-14T06:16:55;2.47;;;2.08;;
19675;SDS011;39539;52.202;9.876;2024-02-14T06:19:21;3.70;;;2.45;;
19675;SDS011;39539;52.202;9.876;2024-02-14T06:21:47;2.47;;;2.05;;
19675;SDS011;39539;52.202;9.876;2024-02-14T06:24:12;1.98;;;1.88;;
19675;SDS011;39539;52.202;9.876;2024-02-14T06:26:38;2.60;;;1.98;;
19675;SDS011;39539;52.202;9.876;2024-02-14T06:29:04;2.70;;;2.13;;
19675;SDS011;39539;52.202;9.876;2024-02-14T06:31:29;2.70;;;2.28;;
19675;SDS011;39539;52.202;9.876;2024-02-14T06:33:54;3.05;;;2.80;;
19675;SDS011;39539;52.202;9.876;2024-02-14T06:36:20;2.42;;;2.10;;
19675;SDS011;39539;52.202;9.876;2024-02-14T06:38:45;3.17;;;2.10;;
19675;SDS011;39539;52.202;9.876;2024-02-14T06:41:11;2.55;;;2.35;;
19675;SDS011;39539;52.202;9.876;2024-02-14T06:43:37;2.38;;;2.10;;
19675;SDS011;39539;52.202;9.876;2024-02-14T06:46:04;2.83;;;2.20;;
19675;SDS011;39539;52.202;9.876;2024-02-14T06:48:32;4.72;;;2.30;;
19675;SDS011;39539;52.202;9.876;2024-02-14T06:50:58;2.20;;;2.00;;
19675;SDS011;39539;52.202;9.876;2024-02-14T06:53:23;2.38;;;2.17;;
19675;SDS011;39539;52.202;9.876;2024-02-14T06:55:49;2.88;;;2.30;;
19675;SDS011;39539;52.202;9.876;2024-02-14T06:58:14;2.70;;;2.50;;
19675;SDS011;39539;52.202;9.876;2024-02-14T07:00:39;2.15;;;2.00;;
19675;SDS011;39539;52.202;9.876;2024-02-14T07:03:05;2.53;;;2.33;;
19675;SDS011;39539;52.202;9.876;2024-02-14T07:05:30;4.65;;;2.58;;
19675;SDS011;39539;52.202;9.876;2024-02-14T07:07:55;3.45;;;2.30;;
19675;SDS011;39539;52.202;9.876;2024-02-14T07:10:21;2.35;;;2.15;;
19675;SDS011;39539;52.202;9.876;2024-02-14T07:12:46;2.67;;;2.38;;
19675;SDS011;39539;52.202;9.876;2024-02-14T07:15:12;3.17;;;2.95;;
19675;SDS011;39539;52.202;9.876;2024-02-14T07:17:37;2.75;;;2.50;;
19675;SDS011;39539;52.202;9.876;2024-02-14T07:20:05;4.00;;;2.50;;
19675;SDS011;39539;52.202;9.876;2024-02-14T07:22:34;2.47;;;2.28;;
19675;SDS011;39539;52.202;9.876;2024-02-14T07:25:00;3.65;;;2.33;;
19675;SDS011;39539;52.202;9.876;2024-02-14T07:27:25;4.57;;;2.65;;
19675;SDS011;39539;52.202;9.876;2024-02-14T07:29:50;3.47;;;2.13;;
19675;SDS011;39539;52.202;9.876;2024-02-14T07:32:16;2.55;;;2.17;;
19675;SDS011;39539;52.202;9.876;2024-02-14T07:34:42;3.03;;;2.20;;
19675;SDS011;39539;52.202;9.876;2024-02-14T07:37:07;2.25;;;2.05;;
19675;SDS011;39539;52.202;9.876;2024-02-14T07:39:33;2.67;;;2.30;;
19675;SDS011;39539;52.202;9.876;2024-02-14T07:41:59;3.60;;;2.17;;
19675;SDS011;39539;52.202;9.876;2024-02-14T07:44:25;2.42;;;2.10;;
19675;SDS011;39539;52.202;9.876;2024-02-14T07:46:50;3.90;;;2.42;;
19675;SDS011;39539;52.202;9.876;2024-02-14T07:49:17;4.45;;;2.20;;
19675;SDS011;39539;52.202;9.876;2024-02-14T07:51:42;2.92;;;1.88;;
19675;SDS011;39539;52.202;9.876;2024-02-14T07:54:08;3.28;;;1.98;;
19675;SDS011;39539;52.202;9.876;2024-02-14T07:56:33;3.15;;;2.28;;
19675;SDS011;39539;52.202;9.876;2024-02-14T07:58:58;2.88;;;2.25;;
19675;SDS011;39539;52.202;9.876;2024-02-14T08:01:24;3.70;;;2.08;;
19675;SDS011;39539;52.202;9.876;2024-02-14T08:03:50;2.35;;;1.90;;
19675;SDS011;39539;52.202;9.876;2024-02-14T08:06:16;2.38;;;1.90;;
19675;SDS011;39539;52.202;9.876;2024-02-14T08:08:41;3.17;;;2.25;;
19675;SDS011;39539;52.202;9.876;2024-02-14T08:11:06;2.08;;;1.83;;
19675;SDS011;39539;52.202;9.876;2024-02-14T08:13:32;3.00;;;2.10;;
19675;SDS011;39539;52.202;9.876;2024-02-14T08:15:57;3.25;;;1.90;;
19675;SDS011;39539;52.202;9.876;2024-02-14T08:18:25;1.98;;;1.80;;
19675;SDS011;39539;52.202;9.876;2024-02-14T08:20:52;1.70;;;1.60;;
19675;SDS011;39539;52.202;9.876;2024-02-14T08:23:18;1.80;;;1.42;;
19675;SDS011;39539;52.202;9.876;2024-02-14T08:25:44;2.38;;;1.50;;
19675;SDS011;39539;52.202;9.876;2024-02-14T08:28:10;1.83;;;1.33;;
19675;SDS011;39539;52.202;9.876;2024-02-14T08:30:35;2.55;;;1.52;;
19675;SDS011;39539;52.202;9.876;2024-02-14T08:33:02;2.00;;;1.80;;
19675;SDS011;39539;52.202;9.876;2024-02-14T08:35:29;1.55;;;1.45;;
19675;SDS011;39539;52.202;9.876;2024-02-14T08:37:54;2.13;;;1.73;;
19675;SDS011;39539;52.202;9.876;2024-02-14T08:40:20;3.05;;;1.80;;
19675;SDS011;39539;52.202;9.876;2024-02-14T08:42:45;3.22;;;1.90;;
19675;SDS011;39539;52.202;9.876;2024-02-14T08:45:11;1.70;;;1.60;;
19675;SDS011;39539;52.202;9.876;2024-02-14T08:47:36;2.60;;;2.00;;
19675;SDS011;39539;52.202;9.876;2024-02-14T08:50:03;1.85;;;1.75;;
19675;SDS011;39539;52.202;9.876;2024-02-14T08:52:29;1.95;;;1.85;;
19675;SDS011;39539;52.202;9.876;2024-02-14T08:54:54;2.20;;;2.10;;
19675;SDS011;39539;52.202;9.876;2024-02-14T08:57:20;2.35;;;2.15;;
19675;SDS011;39539;52.202;9.876;2024-02-14T08:59:46;2.33;;;2.22;;
19675;SDS011;39539;52.202;9.876;2024-02-14T09:02:13;2.20;;;2.10;;
19675;SDS011;39539;52.202;9.876;2024-02-14T09:04:39;2.53;;;2.42;;
19675;SDS011;39539;52.202;9.876;2024-02-14T09:07:06;2.67;;;2.58;;
19675;SDS011;39539;52.202;9.876;2024-02-14T09:09:32;2.85;;;2.65;;
19675;SDS011;39539;52.202;9.876;2024-02-14T09:11:58;3.50;;;3.20;;
19675;SDS011;39539;52.202;9.876;2024-02-14T09:14:27;3.10;;;2.90;;
19675;SDS011;39539;52.202;9.876;2024-02-14T09:16:52;3.35;;;3.13;;
19675;SDS011;39539;52.202;9.876;2024-02-14T09:19:18;3.10;;;2.90;;
19675;SDS011;39539;52.202;9.876;2024-02-14T09:21:43;3.20;;;3.00;;
19675;SDS011;39539;52.202;9.876;2024-02-14T09:24:08;3.47;;;3.28;;
19675;SDS011;39539;52.202;9.876;2024-02-14T09:26:34;3.50;;;3.30;;
19675;SDS011;39539;52.202;9.876;2024-02-14T09:28:59;3.92;;;3.72;;
19675;SDS011;39539;52.202;9.876;2024-02-14T09:31:24;3.80;;;3.50;;
19675;SDS011;39539;52.202;9.876;2024-02-14T09:33:50;3.70;;;3.40;;
19675;SDS011;39539;52.202;9.876;2024-02-14T09:36:15;3.70;;;3.40;;
19675;SDS011;39539;52.202;9.876;2024-02-14T09:38:41;3.63;;;3.38;;
19675;SDS011;39539;52.202;9.876;2024-02-14T09:43:56;3.80;;;3.50;;
19675;SDS011;39539;52.202;9.876;2024-02-14T09:46:22;3.42;;;3.22;;
19675;SDS011;39539;52.202;9.876;2024-02-14T09:48:50;3.53;;;3.25;;
19675;SDS011;39539;52.202;9.876;2024-02-14T09:51:17;3.20;;;3.00;;
19675;SDS011;39539;52.202;9.876;2024-02-14T09:53:42;3.05;;;2.85;;
19675;SDS011;39539;52.202;9.876;2024-02-14T09:56:09;2.97;;;2.65;;
19675;SDS011;39539;52.202;9.876;2024-02-14T09:58:36;3.28;;;3.08;;
19675;SDS011;39539;52.202;9.876;2024-02-14T10:01:02;3.50;;;3.20;;
19675;SDS011;39539;52.202;9.876;2024-02-14T10:03:27;3.40;;;3.05;;
19675;SDS011;39539;52.202;9.876;2024-02-14T10:05:52;3.00;;;2.80;;
19675;SDS011;39539;52.202;9.876;2024-02-14T10:08:18;3.33;;;3.03;;
19675;SDS011;39539;52.202;9.876;2024-02-14T10:10:44;3.30;;;3.10;;
19675;SDS011;39539;52.202;9.876;2024-02-14T10:13:09;2.58;;;2.40;;
19675;SDS011;39539;52.202;9.876;2024-02-14T10:15:35;2.92;;;2.67;;
19675;SDS011;39539;52.202;9.876;2024-02-14T10:18:00;3.00;;;2.80;;
19675;SDS011;39539;52.202;9.876;2024-02-14T10:20:28;2.75;;;2.60;;
19675;SDS011;39539;52.202;9.876;2024-02-14T10:23:04;3.45;;;3.22;;
19675;SDS011;39539;52.202;9.876;2024-02-14T10:25:30;4.10;;;3.40;;
19675;SDS011;39539;52.202;9.876;2024-02-14T10:28:02;3.20;;;3.00;;
19675;SDS011;39539;52.202;9.876;2024-02-14T10:30:29;3.28;;;3.08;;
19675;SDS011;39539;52.202;9.876;2024-02-14T10:32:54;3.35;;;3.15;;
19675;SDS011;39539;52.202;9.876;2024-02-14T10:35:23;3.80;;;3.50;;
19675;SDS011;39539;52.202;9.876;2024-02-14T10:37:48;3.47;;;3.25;;
19675;SDS011;39539;52.202;9.876;2024-02-14T10:40:14;4.00;;;3.70;;
19675;SDS011;39539;52.202;9.876;2024-02-14T10:42:39;3.42;;;3.17;;
19675;SDS011;39539;52.202;9.876;2024-02-14T10:45:05;3.50;;;3.20;;
19675;SDS011;39539;52.202;9.876;2024-02-14T10:47:31;3.85;;;3.55;;
19675;SDS011;39539;52.202;9.876;2024-02-14T10:50:06;3.03;;;2.83;;
19675;SDS011;39539;52.202;9.876;2024-02-14T10:52:33;3.35;;;3.20;;
19675;SDS011;39539;52.202;9.876;2024-02-14T10:55:03;2.90;;;2.70;;
19675;SDS011;39539;52.202;9.876;2024-02-14T10:57:31;3.40;;;3.17;;
19675;SDS011;39539;52.202;9.876;2024-02-14T11:00:00;3.78;;;3.50;;
19675;SDS011;39539;52.202;9.876;2024-02-14T11:02:30;3.30;;;3.10;;
19675;SDS011;39539;52.202;9.876;2024-02-14T11:04:59;3.42;;;3.13;;
19675;SDS011;39539;52.202;9.876;2024-02-14T11:07:27;2.95;;;2.75;;
19675;SDS011;39539;52.202;9.876;2024-02-14T11:10:27;3.15;;;2.95;;
19675;SDS011;39539;52.202;9.876;2024-02-14T11:12:47;3.72;;;3.08;;
19675;SDS011;39539;52.202;9.876;2024-02-14T11:17:43;3.22;;;3.03;;
19675;SDS011;39539;52.202;9.876;2024-02-14T11:20:13;2.92;;;2.72;;
19675;SDS011;39539;52.202;9.876;2024-02-14T11:22:39;3.40;;;3.20;;
19675;SDS011;39539;52.202;9.876;2024-02-14T11:25:15;2.80;;;2.60;;
19675;SDS011;39539;52.202;9.876;2024-02-14T11:27:46;3.42;;;3.13;;
19675;SDS011;39539;52.202;9.876;2024-02-14T11:30:12;3.20;;;3.00;;
19675;SDS011;39539;52.202;9.876;2024-02-14T11:32:40;3.28;;;2.97;;
19675;SDS011;39539;52.202;9.876;2024-02-14T11:35:07;2.88;;;2.70;;
19675;SDS011;39539;52.202;9.876;2024-02-14T11:37:36;2.90;;;2.70;;
19675;SDS011;39539;52.202;9.876;2024-02-14T11:40:01;2.67;;;2.58;;
19675;SDS011;39539;52.202;9.876;2024-02-14T11:42:27;2.95;;;2.75;;
19675;SDS011;39539;52.202;9.876;2024-02-14T11:44:53;3.00;;;2.80;;
19675;SDS011;39539;52.202;9.876;2024-02-14T11:47:21;2.88;;;2.67;;
19675;SDS011;39539;52.202;9.876;2024-02-14T11:49:47;2.85;;;2.65;;
19675;SDS011;39539;52.202;9.876;2024-02-14T11:52:13;2.75;;;2.55;;
19675;SDS011;39539;52.202;9.876;2024-02-14T11:54:39;2.97;;;2.78;;
19675;SDS011;39539;52.202;9.876;2024-02-14T11:57:05;2.72;;;2.53;;
19675;SDS011;39539;52.202;9.876;2024-02-14T11:59:33;2.50;;;2.40;;
19675;SDS011;39539;52.202;9.876;2024-02-14T12:01:59;2.20;;;2.10;;
19675;SDS011;39539;52.202;9.876;2024-02-14T12:04:24;2.42;;;2.33;;
19675;SDS011;39539;52.202;9.876;2024-02-14T12:06:50;2.70;;;2.50;;
19675;SDS011;39539;52.202;9.876;2024-02-14T12:09:16;2.10;;;2.00;;
19675;SDS011;39539;52.202;9.876;2024-02-14T12:11:42;2.70;;;2.50;;
19675;SDS011;39539;52.202;9.876;2024-02-14T12:14:11;2.38;;;2.17;;
19675;SDS011;39539;52.202;9.876;2024-02-14T12:16:37;2.50;;;2.40;;
19675;SDS011;39539;52.202;9.876;2024-02-14T12:19:23;2.25;;;2.15;;
19675;SDS011;39539;52.202;9.876;2024-02-14T12:21:48;2.45;;;2.00;;
19675;SDS011;39539;52.202;9.876;2024-02-14T12:24:14;2.70;;;2.60;;
19675;SDS011;39539;52.202;9.876;2024-02-14T12:26:40;3.08;;;2.88;;
19675;SDS011;39539;52.202;9.876;2024-02-14T12:29:07;3.25;;;2.97;;
19675;SDS011;39539;52.202;9.876;2024-02-14T12:31:34;3.30;;;3.10;;
19675;SDS011;39539;52.202;9.876;2024-02-14T12:34:00;3.35;;;3.15;;
19675;SDS011;39539;52.202;9.876;2024-02-14T12:36:28;2.88;;;2.67;;
19675;SDS011;39539;52.202;9.876;2024-02-14T12:38:54;2.70;;;2.50;;
19675;SDS011;39539;52.202;9.876;2024-02-14T12:41:20;2.72;;;2.60;;
19675;SDS011;39539;52.202;9.876;2024-02-14T12:43:47;2.95;;;2.75;;
19675;SDS011;39539;52.202;9.876;2024-02-14T12:46:13;3.00;;;2.75;;
19675;SDS011;39539;52.202;9.876;2024-02-14T12:48:39;3.10;;;2.90;;
19675;SDS011;39539;52.202;9.876;2024-02-14T12:51:05;2.70;;;2.60;;
19675;SDS011;39539;52.202;9.876;2024-02-14T12:53:32;2.72;;;2.55;;
19675;SDS011;39539;52.202;9.876;2024-02-14T12:55:58;2.70;;;2.50;;
19675;SDS011;39539;52.202;9.876;2024-02-14T12:58:23;2.78;;;2.05;;
19675;SDS011;39539;52.202;9.876;2024-02-14T13:00:49;2.38;;;2.28;;
19675;SDS011;39539;52.202;9.876;2024-02-14T13:03:14;2.70;;;2.58;;
19675;SDS011;39539;52.202;9.876;2024-02-14T13:05:40;2.80;;;2.60;;
19675;SDS011;39539;52.202;9.876;2024-02-14T13:08:06;2.55;;;2.40;;
19675;SDS011;39539;52.202;9.876;2024-02-14T13:10:32;2.90;;;2.70;;
19675;SDS011;39539;52.202;9.876;2024-02-14T13:12:57;2.53;;;2.42;;
19675;SDS011;39539;52.202;9.876;2024-02-14T13:15:23;2.60;;;2.50;;
19675;SDS011;39539;52.202;9.876;2024-02-14T13:17:48;2.67;;;2.58;;
19675;SDS011;39539;52.202;9.876;2024-02-14T13:20:14;2.90;;;2.72;;
19675;SDS011;39539;52.202;9.876;2024-02-14T13:22:40;2.45;;;2.25;;
19675;SDS011;39539;52.202;9.876;2024-02-14T13:25:07;2.42;;;2.33;;
19675;SDS011;39539;52.202;9.876;2024-02-14T13:27:34;2.05;;;1.95;;
19675;SDS011;39539;52.202;9.876;2024-02-14T13:30:01;2.75;;;2.20;;
19675;SDS011;39539;52.202;9.876;2024-02-14T13:32:26;2.47;;;2.38;;
19675;SDS011;39539;52.202;9.876;2024-02-14T13:34:52;2.50;;;2.40;;
19675;SDS011;39539;52.202;9.876;2024-02-14T13:37:17;2.40;;;2.30;;
19675;SDS011;39539;52.202;9.876;2024-02-14T13:39:43;2.75;;;2.13;;
19675;SDS011;39539;52.202;9.876;2024-02-14T13:42:09;2.22;;;2.10;;
19675;SDS011;39539;52.202;9.876;2024-02-14T13:44:34;2.00;;;1.90;;
19675;SDS011;39539;52.202;9.876;2024-02-14T13:47:00;2.10;;;2.00;;
19675;SDS011;39539;52.202;9.876;2024-02-14T13:49:25;2.10;;;2.00;;
19675;SDS011;39539;52.202;9.876;2024-02-14T13:51:51;12.43;;;11.63;;
19675;SDS011;39539;52.202;9.876;2024-02-14T13:54:17;36.20;;;32.83;;
19675;SDS011;39539;52.202;9.876;2024-02-14T13:56:46;22.58;;;20.88;;
19675;SDS011;39539;52.202;9.876;2024-02-14T13:59:13;19.77;;;18.48;;
19675;SDS011;39539;52.202;9.876;2024-02-14T14:01:39;31.10;;;28.25;;
19675;SDS011;39539;52.202;9.876;2024-02-14T14:04:05;11.90;;;11.05;;
19675;SDS011;39539;52.202;9.876;2024-02-14T14:06:30;10.98;;;10.18;;
19675;SDS011;39539;52.202;9.876;2024-02-14T14:08:56;13.85;;;12.85;;
19675;SDS011;39539;52.202;9.876;2024-02-14T14:11:21;6.60;;;6.10;;
19675;SDS011;39539;52.202;9.876;2024-02-14T14:13:47;12.55;;;11.68;;
19675;SDS011;39539;52.202;9.876;2024-02-14T14:16:12;6.50;;;6.10;;
19675;SDS011;39539;52.202;9.876;2024-02-14T14:18:38;7.28;;;6.88;;
19675;SDS011;39539;52.202;9.876;2024-02-14T14:21:04;6.78;;;6.28;;
19675;SDS011;39539;52.202;9.876;2024-02-14T14:23:30;6.85;;;6.25;;
19675;SDS011;39539;52.202;9.876;2024-02-14T14:25:55;6.47;;;5.97;;
19675;SDS011;39539;52.202;9.876;2024-02-14T14:28:20;14.95;;;13.90;;
19675;SDS011;39539;52.202;9.876;2024-02-14T14:30:52;13.35;;;12.25;;
19675;SDS011;39539;52.202;9.876;2024-02-14T14:33:21;11.75;;;10.95;;
19675;SDS011;39539;52.202;9.876;2024-02-14T14:35:47;44.28;;;39.95;;
19675;SDS011;39539;52.202;9.876;2024-02-14T14:38:19;27.70;;;25.30;;
19675;SDS011;39539;52.202;9.876;2024-02-14T14:40:46;16.70;;;15.57;;
19675;SDS011;39539;52.202;9.876;2024-02-14T14:43:12;10.13;;;9.35;;
19675;SDS011;39539;52.202;9.876;2024-02-14T14:45:38;5.53;;;5.03;;